AAL823 CYWG-KATW
Flight info
| Callsign | AAL823 |
|---|---|
| Flight time | 1h 18m |
| Altitude | 35000 |
| Route | OMLOT DCT TUKAD DCT DLH |
| Aircraft | B738/M-SDE2E3FGHIRWXY/LB1 |
Departure
| Time | 2026-05-07 21:03 |
|---|---|
| Airport | Winnipeg / James Armstrong Richardson International Airport (CYWG) |
Arrival
| Time | 2026-05-07 22:21 |
|---|---|
| Airport | Appleton International Airport (KATW) |
| Time | Latitude | Longitude | Altitude | Speed | Heading |
|---|---|---|---|---|---|
| 2026-05-07 20:46 | 49.90449 | -97.22974 | 783 ft | 0 kts | 109° |
| 2026-05-07 20:55 | 49.90447 | -97.22966 | 783 ft | 3 kts | 111° |
| 2026-05-07 20:55 | 49.90441 | -97.22907 | 783 ft | 6 kts | 59° |
| 2026-05-07 20:55 | 49.90498 | -97.22873 | 783 ft | 12 kts | 359° |
| 2026-05-07 20:56 | 49.90512 | -97.22877 | 783 ft | 1 kts | 346° |
| 2026-05-07 20:56 | 49.90523 | -97.22882 | 782 ft | 4 kts | 341° |
| 2026-05-07 20:57 | 49.90551 | -97.22919 | 782 ft | 7 kts | 310° |
| 2026-05-07 20:57 | 49.90587 | -97.22996 | 782 ft | 10 kts | 305° |
| 2026-05-07 20:57 | 49.90629 | -97.23089 | 781 ft | 10 kts | 305° |
| 2026-05-07 20:57 | 49.90671 | -97.23179 | 781 ft | 10 kts | 301° |
| 2026-05-07 20:58 | 49.90659 | -97.23283 | 781 ft | 11 kts | 232° |
| 2026-05-07 20:58 | 49.90592 | -97.23335 | 783 ft | 11 kts | 198° |
| 2026-05-07 20:58 | 49.90514 | -97.23374 | 783 ft | 13 kts | 198° |
| 2026-05-07 20:58 | 49.90423 | -97.23422 | 783 ft | 15 kts | 199° |
| 2026-05-07 20:59 | 49.90320 | -97.23456 | 786 ft | 16 kts | 159° |
| 2026-05-07 20:59 | 49.90237 | -97.23353 | 788 ft | 15 kts | 138° |
| 2026-05-07 20:59 | 49.90159 | -97.23249 | 787 ft | 14 kts | 139° |
| 2026-05-07 20:59 | 49.90109 | -97.23180 | 787 ft | 14 kts | 137° |
| 2026-05-07 21:00 | 49.90015 | -97.23049 | 785 ft | 14 kts | 138° |
| 2026-05-07 21:00 | 49.89966 | -97.22982 | 784 ft | 14 kts | 138° |
| 2026-05-07 21:00 | 49.89897 | -97.22886 | 784 ft | 13 kts | 138° |
| 2026-05-07 21:00 | 49.89822 | -97.22745 | 784 ft | 13 kts | 128° |
| 2026-05-07 21:01 | 49.89785 | -97.22674 | 785 ft | 12 kts | 130° |
| 2026-05-07 21:01 | 49.89731 | -97.22575 | 786 ft | 12 kts | 130° |
| 2026-05-07 21:01 | 49.89660 | -97.22565 | 786 ft | 13 kts | 225° |
| 2026-05-07 21:01 | 49.89594 | -97.22676 | 785 ft | 14 kts | 227° |
| 2026-05-07 21:02 | 49.89541 | -97.22807 | 784 ft | 15 kts | 279° |
| 2026-05-07 21:02 | 49.89665 | -97.22996 | 781 ft | 57 kts | 318° |
| 2026-05-07 21:02 | 49.90155 | -97.23667 | 785 ft | 131 kts | 319° |
| 2026-05-07 21:02 | 49.90986 | -97.24802 | 986 ft | 174 kts | 317° |
| 2026-05-07 21:03 | 49.91950 | -97.25874 | 2086 ft | 167 kts | 329° |
| 2026-05-07 21:03 | 49.93184 | -97.26241 | 2555 ft | 201 kts | 7° |
| 2026-05-07 21:03 | 49.94454 | -97.25072 | 2795 ft | 230 kts | 49° |
| 2026-05-07 21:03 | 49.94996 | -97.22686 | 3255 ft | 245 kts | 86° |
| 2026-05-07 21:04 | 49.94555 | -97.20124 | 3800 ft | 252 kts | 121° |
| 2026-05-07 21:04 | 49.93354 | -97.18139 | 4382 ft | 254 kts | 139° |
| 2026-05-07 21:04 | 49.92015 | -97.16321 | 4952 ft | 257 kts | 139° |
| 2026-05-07 21:04 | 49.90678 | -97.14462 | 5552 ft | 259 kts | 138° |
| 2026-05-07 21:05 | 49.89336 | -97.12550 | 6032 ft | 268 kts | 138° |
| 2026-05-07 21:05 | 49.87929 | -97.10507 | 6384 ft | 284 kts | 137° |
| 2026-05-07 21:05 | 49.86479 | -97.08378 | 7110 ft | 287 kts | 137° |
| 2026-05-07 21:05 | 49.85033 | -97.06233 | 7926 ft | 289 kts | 137° |
| 2026-05-07 21:06 | 49.83573 | -97.04052 | 8627 ft | 295 kts | 136° |
| 2026-05-07 21:06 | 49.82091 | -97.01835 | 9383 ft | 297 kts | 136° |
| 2026-05-07 21:06 | 49.80591 | -96.99587 | 10039 ft | 304 kts | 136° |
| 2026-05-07 21:06 | 49.79025 | -96.97238 | 10295 ft | 326 kts | 136° |
| 2026-05-07 21:07 | 49.77342 | -96.94711 | 10486 ft | 348 kts | 135° |
| 2026-05-07 21:07 | 49.75562 | -96.92039 | 10843 ft | 362 kts | 135° |
| 2026-05-07 21:07 | 49.73734 | -96.89302 | 11426 ft | 369 kts | 135° |
| 2026-05-07 21:07 | 49.71877 | -96.86527 | 12036 ft | 374 kts | 135° |
| 2026-05-07 21:08 | 49.69993 | -96.83705 | 12621 ft | 380 kts | 134° |
| 2026-05-07 21:08 | 49.68162 | -96.80732 | 13229 ft | 384 kts | 131° |
| 2026-05-07 21:08 | 49.66383 | -96.77648 | 13901 ft | 385 kts | 129° |
| 2026-05-07 21:08 | 49.64617 | -96.74511 | 14517 ft | 389 kts | 129° |
| 2026-05-07 21:09 | 49.62831 | -96.71343 | 15083 ft | 393 kts | 129° |
| 2026-05-07 21:09 | 49.61019 | -96.68150 | 15656 ft | 397 kts | 129° |
| 2026-05-07 21:09 | 49.59186 | -96.64935 | 16216 ft | 401 kts | 130° |
| 2026-05-07 21:09 | 49.57332 | -96.61701 | 16758 ft | 405 kts | 129° |
| 2026-05-07 21:10 | 49.55458 | -96.58436 | 17286 ft | 409 kts | 129° |
| 2026-05-07 21:10 | 49.53566 | -96.55148 | 17813 ft | 412 kts | 129° |
| 2026-05-07 21:10 | 49.51657 | -96.51838 | 18333 ft | 415 kts | 129° |
| 2026-05-07 21:10 | 49.49727 | -96.48502 | 18835 ft | 419 kts | 130° |
| 2026-05-07 21:11 | 49.47785 | -96.45153 | 19350 ft | 421 kts | 130° |
| 2026-05-07 21:11 | 49.45825 | -96.41780 | 19840 ft | 424 kts | 130° |
| 2026-05-07 21:11 | 49.41862 | -96.34969 | 20732 ft | 431 kts | 130° |
| 2026-05-07 21:12 | 49.39859 | -96.31535 | 21217 ft | 432 kts | 130° |
| 2026-05-07 21:12 | 49.37846 | -96.28093 | 21651 ft | 435 kts | 130° |
| 2026-05-07 21:12 | 49.35816 | -96.24623 | 22041 ft | 438 kts | 130° |
| 2026-05-07 21:12 | 49.33772 | -96.21137 | 22447 ft | 441 kts | 130° |
| 2026-05-07 21:13 | 49.31714 | -96.17635 | 22857 ft | 443 kts | 130° |
| 2026-05-07 21:13 | 49.29672 | -96.14157 | 23239 ft | 445 kts | 130° |
| 2026-05-07 21:13 | 49.27593 | -96.10618 | 23605 ft | 448 kts | 130° |
| 2026-05-07 21:13 | 49.25502 | -96.07064 | 23966 ft | 451 kts | 130° |
| 2026-05-07 21:14 | 49.23396 | -96.03488 | 24319 ft | 453 kts | 130° |
| 2026-05-07 21:14 | 49.21280 | -95.99899 | 24641 ft | 456 kts | 130° |
| 2026-05-07 21:14 | 49.19155 | -95.96293 | 25081 ft | 455 kts | 130° |
| 2026-05-07 21:14 | 49.17036 | -95.92705 | 25472 ft | 456 kts | 130° |
| 2026-05-07 21:15 | 49.14897 | -95.89095 | 25698 ft | 461 kts | 130° |
| 2026-05-07 21:15 | 49.12731 | -95.85459 | 25911 ft | 465 kts | 130° |
| 2026-05-07 21:15 | 49.10592 | -95.81875 | 26186 ft | 467 kts | 130° |
| 2026-05-07 21:15 | 49.08397 | -95.78198 | 26483 ft | 469 kts | 130° |
| 2026-05-07 21:16 | 49.06195 | -95.74507 | 26754 ft | 471 kts | 130° |
| 2026-05-07 21:16 | 49.03984 | -95.70798 | 26997 ft | 474 kts | 130° |
| 2026-05-07 21:16 | 49.01771 | -95.67097 | 27498 ft | 468 kts | 130° |
| 2026-05-07 21:16 | 48.99606 | -95.63477 | 28299 ft | 456 kts | 130° |
| 2026-05-07 21:17 | 48.97496 | -95.59959 | 29097 ft | 443 kts | 130° |
| 2026-05-07 21:17 | 48.95442 | -95.56541 | 29818 ft | 432 kts | 130° |
| 2026-05-07 21:17 | 48.93417 | -95.53169 | 30201 ft | 432 kts | 130° |
| 2026-05-07 21:17 | 48.91384 | -95.49782 | 30377 ft | 436 kts | 130° |
| 2026-05-07 21:18 | 48.89332 | -95.46365 | 30549 ft | 439 kts | 130° |
| 2026-05-07 21:18 | 48.87269 | -95.42938 | 30777 ft | 441 kts | 130° |
| 2026-05-07 21:18 | 48.85194 | -95.39496 | 30980 ft | 443 kts | 130° |
| 2026-05-07 21:18 | 48.83108 | -95.36038 | 31191 ft | 445 kts | 130° |
| 2026-05-07 21:19 | 48.81014 | -95.32576 | 31410 ft | 446 kts | 130° |
| 2026-05-07 21:19 | 48.78911 | -95.29102 | 31619 ft | 448 kts | 130° |
| 2026-05-07 21:19 | 48.76797 | -95.25618 | 31808 ft | 450 kts | 130° |
| 2026-05-07 21:19 | 48.74674 | -95.22124 | 31993 ft | 451 kts | 130° |
| 2026-05-07 21:20 | 48.72543 | -95.18623 | 32178 ft | 453 kts | 130° |
| 2026-05-07 21:20 | 48.70404 | -95.15111 | 32364 ft | 454 kts | 131° |
| 2026-05-07 21:20 | 48.68257 | -95.11591 | 32542 ft | 456 kts | 131° |
| 2026-05-07 21:20 | 48.66102 | -95.08062 | 32706 ft | 457 kts | 131° |
| 2026-05-07 21:21 | 48.63936 | -95.04523 | 32871 ft | 459 kts | 131° |
| 2026-05-07 21:21 | 48.61790 | -95.01022 | 33029 ft | 461 kts | 131° |
| 2026-05-07 21:21 | 48.59610 | -94.97471 | 33230 ft | 461 kts | 131° |
| 2026-05-07 21:21 | 48.57425 | -94.93914 | 33408 ft | 462 kts | 131° |
| 2026-05-07 21:22 | 48.53007 | -94.86733 | 33491 ft | 471 kts | 131° |
| 2026-05-07 21:22 | 48.48510 | -94.79442 | 33574 ft | 479 kts | 131° |
| 2026-05-07 21:23 | 48.43934 | -94.72045 | 33641 ft | 486 kts | 131° |
| 2026-05-07 21:23 | 48.39288 | -94.64560 | 33707 ft | 492 kts | 131° |
| 2026-05-07 21:24 | 48.34573 | -94.56984 | 33759 ft | 499 kts | 132° |
| 2026-05-07 21:24 | 48.29793 | -94.49332 | 33827 ft | 504 kts | 132° |
| 2026-05-07 21:25 | 48.24981 | -94.41647 | 34110 ft | 504 kts | 132° |
| 2026-05-07 21:25 | 48.22585 | -94.37826 | 34329 ft | 502 kts | 132° |
| 2026-05-07 21:25 | 48.20192 | -94.34017 | 34483 ft | 502 kts | 132° |
| 2026-05-07 21:26 | 48.15398 | -94.26398 | 34665 ft | 504 kts | 132° |
| 2026-05-07 21:26 | 48.12995 | -94.22587 | 34823 ft | 503 kts | 133° |
| 2026-05-07 21:26 | 48.10593 | -94.18778 | 34882 ft | 503 kts | 133° |
| 2026-05-07 21:27 | 48.05772 | -94.11168 | 34891 ft | 504 kts | 133° |
| 2026-05-07 21:27 | 48.00950 | -94.03584 | 34889 ft | 503 kts | 133° |
| 2026-05-07 21:28 | 47.96133 | -93.96032 | 34872 ft | 502 kts | 133° |
| 2026-05-07 21:28 | 47.91351 | -93.88549 | 34878 ft | 501 kts | 133° |
| 2026-05-07 21:29 | 47.86546 | -93.81051 | 34883 ft | 500 kts | 133° |
| 2026-05-07 21:29 | 47.81735 | -93.73559 | 34882 ft | 500 kts | 133° |
| 2026-05-07 21:30 | 47.76918 | -93.66083 | 34879 ft | 500 kts | 133° |
| 2026-05-07 21:30 | 47.72102 | -93.58628 | 34879 ft | 500 kts | 133° |
| 2026-05-07 21:31 | 47.67276 | -93.51181 | 34883 ft | 501 kts | 134° |
| 2026-05-07 21:31 | 47.62432 | -93.43739 | 34875 ft | 501 kts | 134° |
| 2026-05-07 21:32 | 47.57583 | -93.36299 | 34871 ft | 502 kts | 134° |
| 2026-05-07 21:32 | 47.52722 | -93.28860 | 34871 ft | 503 kts | 134° |
| 2026-05-07 21:33 | 47.47856 | -93.21438 | 34867 ft | 502 kts | 134° |
| 2026-05-07 21:33 | 47.42984 | -93.14024 | 34870 ft | 503 kts | 134° |
| 2026-05-07 21:34 | 47.38107 | -93.06624 | 34866 ft | 503 kts | 134° |
| 2026-05-07 21:34 | 47.33223 | -92.99240 | 34859 ft | 503 kts | 134° |
| 2026-05-07 21:35 | 47.28340 | -92.91871 | 34861 ft | 502 kts | 135° |
| 2026-05-07 21:35 | 47.23457 | -92.84527 | 34859 ft | 501 kts | 135° |
| 2026-05-07 21:36 | 47.18575 | -92.77208 | 34858 ft | 501 kts | 135° |
| 2026-05-07 21:36 | 47.13734 | -92.69963 | 34861 ft | 500 kts | 135° |
| 2026-05-07 21:37 | 47.08857 | -92.62681 | 34860 ft | 500 kts | 135° |
| 2026-05-07 21:37 | 47.03980 | -92.55428 | 34863 ft | 499 kts | 135° |
| 2026-05-07 21:38 | 46.99096 | -92.48183 | 34860 ft | 499 kts | 135° |
| 2026-05-07 21:38 | 46.94211 | -92.40956 | 34861 ft | 499 kts | 135° |
| 2026-05-07 21:39 | 46.89320 | -92.33735 | 34864 ft | 500 kts | 135° |
| 2026-05-07 21:39 | 46.84426 | -92.26518 | 34861 ft | 500 kts | 136° |
| 2026-05-07 21:40 | 46.79562 | -92.19264 | 34857 ft | 500 kts | 131° |
| 2026-05-07 21:40 | 46.75273 | -92.11266 | 34860 ft | 500 kts | 127° |
| 2026-05-07 21:41 | 46.71112 | -92.03131 | 34874 ft | 500 kts | 127° |
| 2026-05-07 21:41 | 46.66926 | -91.95040 | 34873 ft | 500 kts | 128° |
| 2026-05-07 21:42 | 46.62723 | -91.87035 | 34872 ft | 501 kts | 128° |
| 2026-05-07 21:42 | 46.58479 | -91.79005 | 34866 ft | 501 kts | 128° |
| 2026-05-07 21:43 | 46.54221 | -91.70971 | 34857 ft | 502 kts | 128° |
| 2026-05-07 21:43 | 46.49954 | -91.62951 | 34871 ft | 502 kts | 128° |
| 2026-05-07 21:44 | 46.45686 | -91.54946 | 34870 ft | 502 kts | 128° |
| 2026-05-07 21:44 | 46.41412 | -91.46947 | 34870 ft | 501 kts | 128° |
| 2026-05-07 21:45 | 46.37136 | -91.38969 | 34873 ft | 501 kts | 128° |
| 2026-05-07 21:45 | 46.32857 | -91.31008 | 34879 ft | 501 kts | 128° |
| 2026-05-07 21:46 | 46.29295 | -91.24397 | 34878 ft | 501 kts | 128° |
| 2026-05-07 21:46 | 46.25012 | -91.16465 | 34880 ft | 500 kts | 129° |
| 2026-05-07 21:47 | 46.20724 | -91.08559 | 34881 ft | 500 kts | 129° |
| 2026-05-07 21:47 | 46.16438 | -91.00670 | 34882 ft | 499 kts | 129° |
| 2026-05-07 21:48 | 46.11452 | -90.91530 | 34880 ft | 498 kts | 129° |
| 2026-05-07 21:48 | 46.07862 | -90.84961 | 34882 ft | 498 kts | 129° |
| 2026-05-07 21:49 | 46.03580 | -90.77152 | 34885 ft | 496 kts | 129° |
| 2026-05-07 21:49 | 45.99344 | -90.69443 | 34891 ft | 495 kts | 129° |
| 2026-05-07 21:50 | 45.95065 | -90.61678 | 34884 ft | 495 kts | 129° |
| 2026-05-07 21:50 | 45.90783 | -90.53933 | 34887 ft | 495 kts | 129° |
| 2026-05-07 21:51 | 45.86492 | -90.46192 | 34884 ft | 496 kts | 129° |
| 2026-05-07 21:51 | 45.82191 | -90.38454 | 34882 ft | 496 kts | 129° |
| 2026-05-07 21:52 | 45.77889 | -90.30730 | 34879 ft | 496 kts | 130° |
| 2026-05-07 21:52 | 45.73572 | -90.23008 | 34881 ft | 496 kts | 130° |
| 2026-05-07 21:53 | 45.69255 | -90.15303 | 34878 ft | 496 kts | 130° |
| 2026-05-07 21:53 | 45.64935 | -90.07608 | 34879 ft | 496 kts | 130° |
| 2026-05-07 21:54 | 45.60606 | -89.99926 | 34883 ft | 496 kts | 130° |
| 2026-05-07 21:54 | 45.56299 | -89.92305 | 34890 ft | 496 kts | 130° |
| 2026-05-07 21:55 | 45.51961 | -89.84641 | 34891 ft | 497 kts | 130° |
| 2026-05-07 21:55 | 45.49777 | -89.80796 | 34506 ft | 504 kts | 130° |
| 2026-05-07 21:55 | 45.47565 | -89.76909 | 33899 ft | 504 kts | 130° |
| 2026-05-07 21:56 | 45.45366 | -89.73042 | 33253 ft | 501 kts | 130° |
| 2026-05-07 21:56 | 45.43189 | -89.69220 | 32794 ft | 494 kts | 130° |
| 2026-05-07 21:56 | 45.41038 | -89.65450 | 32313 ft | 488 kts | 130° |
| 2026-05-07 21:56 | 45.38908 | -89.61722 | 31832 ft | 482 kts | 130° |
| 2026-05-07 21:57 | 45.36809 | -89.58055 | 31372 ft | 476 kts | 130° |
| 2026-05-07 21:57 | 45.34733 | -89.54432 | 30904 ft | 470 kts | 130° |
| 2026-05-07 21:57 | 45.32679 | -89.50853 | 30446 ft | 464 kts | 130° |
| 2026-05-07 21:57 | 45.30650 | -89.47319 | 29991 ft | 459 kts | 130° |
| 2026-05-07 21:58 | 45.28646 | -89.43831 | 29541 ft | 453 kts | 130° |
| 2026-05-07 21:58 | 45.26663 | -89.40388 | 29090 ft | 448 kts | 130° |
| 2026-05-07 21:58 | 45.24702 | -89.36990 | 28633 ft | 442 kts | 131° |
| 2026-05-07 21:58 | 45.22764 | -89.33631 | 28183 ft | 437 kts | 131° |
| 2026-05-07 21:59 | 45.20846 | -89.30312 | 27736 ft | 433 kts | 131° |
| 2026-05-07 21:59 | 45.18951 | -89.27032 | 27294 ft | 427 kts | 131° |
| 2026-05-07 21:59 | 45.17077 | -89.23795 | 26859 ft | 423 kts | 131° |
| 2026-05-07 21:59 | 45.15220 | -89.20597 | 26420 ft | 418 kts | 131° |
| 2026-05-07 22:00 | 45.13382 | -89.17432 | 25990 ft | 413 kts | 131° |
| 2026-05-07 22:00 | 45.11632 | -89.14416 | 25578 ft | 409 kts | 131° |
| 2026-05-07 22:00 | 45.09803 | -89.11272 | 25148 ft | 405 kts | 131° |
| 2026-05-07 22:00 | 45.08020 | -89.08213 | 24725 ft | 401 kts | 131° |
| 2026-05-07 22:01 | 45.06255 | -89.05187 | 24301 ft | 397 kts | 131° |
| 2026-05-07 22:01 | 45.04505 | -89.02191 | 23899 ft | 393 kts | 131° |
| 2026-05-07 22:01 | 45.02772 | -88.99226 | 23485 ft | 389 kts | 131° |
| 2026-05-07 22:01 | 45.01055 | -88.96292 | 23080 ft | 387 kts | 131° |
| 2026-05-07 22:02 | 44.99345 | -88.93373 | 22676 ft | 384 kts | 131° |
| 2026-05-07 22:02 | 44.97635 | -88.90458 | 22279 ft | 387 kts | 131° |
| 2026-05-07 22:02 | 44.95894 | -88.87493 | 21879 ft | 396 kts | 131° |
| 2026-05-07 22:02 | 44.94127 | -88.84489 | 21447 ft | 396 kts | 131° |
| 2026-05-07 22:03 | 44.92378 | -88.81511 | 21014 ft | 392 kts | 131° |
| 2026-05-07 22:03 | 44.90649 | -88.78569 | 20593 ft | 387 kts | 131° |
| 2026-05-07 22:03 | 44.88939 | -88.75659 | 20184 ft | 383 kts | 131° |
| 2026-05-07 22:03 | 44.87247 | -88.72790 | 19770 ft | 378 kts | 131° |
| 2026-05-07 22:04 | 44.85570 | -88.69952 | 19367 ft | 375 kts | 131° |
| 2026-05-07 22:04 | 44.83911 | -88.67145 | 18967 ft | 371 kts | 131° |
| 2026-05-07 22:04 | 44.82267 | -88.64366 | 18573 ft | 367 kts | 131° |
| 2026-05-07 22:04 | 44.80637 | -88.61615 | 18178 ft | 364 kts | 131° |
| 2026-05-07 22:05 | 44.79024 | -88.58893 | 17787 ft | 360 kts | 131° |
| 2026-05-07 22:05 | 44.77429 | -88.56196 | 17399 ft | 357 kts | 131° |
| 2026-05-07 22:05 | 44.75843 | -88.53526 | 17018 ft | 354 kts | 132° |
| 2026-05-07 22:05 | 44.74271 | -88.50883 | 16632 ft | 351 kts | 132° |
| 2026-05-07 22:06 | 44.72710 | -88.48245 | 16259 ft | 350 kts | 132° |
| 2026-05-07 22:06 | 44.71158 | -88.45668 | 15879 ft | 348 kts | 133° |
| 2026-05-07 22:06 | 44.69596 | -88.43101 | 15501 ft | 344 kts | 132° |
| 2026-05-07 22:06 | 44.68066 | -88.40524 | 15130 ft | 342 kts | 132° |
| 2026-05-07 22:07 | 44.66547 | -88.37953 | 14749 ft | 342 kts | 132° |
| 2026-05-07 22:07 | 44.65007 | -88.35358 | 14433 ft | 352 kts | 132° |
| 2026-05-07 22:07 | 44.63427 | -88.32694 | 14050 ft | 356 kts | 132° |
| 2026-05-07 22:07 | 44.61840 | -88.30037 | 13659 ft | 353 kts | 133° |
| 2026-05-07 22:08 | 44.60270 | -88.27414 | 13275 ft | 349 kts | 133° |
| 2026-05-07 22:08 | 44.58717 | -88.24828 | 12910 ft | 344 kts | 133° |
| 2026-05-07 22:08 | 44.57033 | -88.22514 | 12528 ft | 334 kts | 151° |
| 2026-05-07 22:08 | 44.54948 | -88.21418 | 12238 ft | 313 kts | 178° |
| 2026-05-07 22:09 | 44.52808 | -88.21428 | 11791 ft | 303 kts | 194° |
| 2026-05-07 22:09 | 44.50839 | -88.22239 | 11424 ft | 291 kts | 209° |
| 2026-05-07 22:09 | 44.49004 | -88.23383 | 11082 ft | 288 kts | 210° |
| 2026-05-07 22:09 | 44.47160 | -88.24522 | 10735 ft | 291 kts | 209° |
| 2026-05-07 22:10 | 44.45299 | -88.25667 | 10489 ft | 294 kts | 209° |
| 2026-05-07 22:10 | 44.43415 | -88.26810 | 10351 ft | 293 kts | 208° |
| 2026-05-07 22:10 | 44.41579 | -88.27919 | 10205 ft | 282 kts | 208° |
| 2026-05-07 22:10 | 44.39814 | -88.28980 | 10078 ft | 270 kts | 208° |
| 2026-05-07 22:11 | 44.38115 | -88.29998 | 9922 ft | 262 kts | 209° |
| 2026-05-07 22:11 | 44.36452 | -88.30994 | 9674 ft | 257 kts | 208° |
| 2026-05-07 22:11 | 44.34820 | -88.31972 | 9405 ft | 253 kts | 208° |
| 2026-05-07 22:11 | 44.33222 | -88.32938 | 9141 ft | 248 kts | 208° |
| 2026-05-07 22:12 | 44.31651 | -88.33881 | 8882 ft | 243 kts | 208° |
| 2026-05-07 22:12 | 44.30103 | -88.34810 | 8656 ft | 243 kts | 208° |
| 2026-05-07 22:12 | 44.28535 | -88.35748 | 8409 ft | 248 kts | 207° |
| 2026-05-07 22:12 | 44.26919 | -88.36715 | 8141 ft | 257 kts | 207° |
| 2026-05-07 22:13 | 44.25260 | -88.37709 | 7842 ft | 260 kts | 207° |
| 2026-05-07 22:13 | 44.23535 | -88.38469 | 7503 ft | 264 kts | 189° |
| 2026-05-07 22:13 | 44.21738 | -88.37998 | 7298 ft | 268 kts | 158° |
| 2026-05-07 22:13 | 44.20300 | -88.36341 | 7010 ft | 272 kts | 130° |
| 2026-05-07 22:14 | 44.19379 | -88.34061 | 6790 ft | 269 kts | 116° |
| 2026-05-07 22:14 | 44.18597 | -88.31710 | 6535 ft | 265 kts | 117° |
| 2026-05-07 22:14 | 44.17802 | -88.29404 | 6299 ft | 263 kts | 118° |
| 2026-05-07 22:14 | 44.16997 | -88.27120 | 6021 ft | 262 kts | 120° |
| 2026-05-07 22:15 | 44.15844 | -88.25228 | 5701 ft | 253 kts | 152° |
| 2026-05-07 22:15 | 44.14242 | -88.24453 | 5495 ft | 242 kts | 179° |
| 2026-05-07 22:15 | 44.12576 | -88.24643 | 5224 ft | 241 kts | 200° |
| 2026-05-07 22:15 | 44.11096 | -88.25704 | 4963 ft | 241 kts | 223° |
| 2026-05-07 22:16 | 44.10062 | -88.27497 | 4775 ft | 234 kts | 246° |
| 2026-05-07 22:16 | 44.09640 | -88.29622 | 4628 ft | 225 kts | 265° |
| 2026-05-07 22:16 | 44.09737 | -88.31739 | 4517 ft | 217 kts | 285° |
| 2026-05-07 22:16 | 44.10575 | -88.33384 | 4410 ft | 210 kts | 326° |
| 2026-05-07 22:17 | 44.11899 | -88.34051 | 4359 ft | 195 kts | 338° |
| 2026-05-07 22:17 | 44.13132 | -88.34656 | 4158 ft | 186 kts | 334° |
| 2026-05-07 22:17 | 44.14302 | -88.35319 | 3953 ft | 178 kts | 332° |
| 2026-05-07 22:17 | 44.15410 | -88.35992 | 3756 ft | 170 kts | 331° |
| 2026-05-07 22:18 | 44.16477 | -88.36655 | 3698 ft | 167 kts | 331° |
| 2026-05-07 22:18 | 44.18650 | -88.38003 | 3715 ft | 173 kts | 332° |
| 2026-05-07 22:18 | 44.19821 | -88.38445 | 3689 ft | 178 kts | 351° |
| 2026-05-07 22:19 | 44.21039 | -88.38618 | 3684 ft | 174 kts | 338° |
| 2026-05-07 22:19 | 44.21911 | -88.39645 | 3676 ft | 165 kts | 290° |
| 2026-05-07 22:19 | 44.22034 | -88.41204 | 3636 ft | 162 kts | 274° |
| 2026-05-07 22:19 | 44.22229 | -88.42796 | 3064 ft | 171 kts | 284° |
| 2026-05-07 22:20 | 44.22704 | -88.44361 | 2364 ft | 178 kts | 298° |
| 2026-05-07 22:20 | 44.23396 | -88.45773 | 1826 ft | 175 kts | 302° |
| 2026-05-07 22:20 | 44.24045 | -88.47150 | 1484 ft | 158 kts | 299° |
| 2026-05-07 22:20 | 44.24534 | -88.48473 | 1243 ft | 151 kts | 294° |
| 2026-05-07 22:21 | 44.24987 | -88.49777 | 1055 ft | 149 kts | 294° |
| 2026-05-07 22:21 | 44.25447 | -88.51069 | 912 ft | 147 kts | 295° |
| 2026-05-07 22:21 | 44.25839 | -88.52184 | 900 ft | 99 kts | 296° |
| 2026-05-07 22:21 | 44.26050 | -88.52777 | 897 ft | 37 kts | 296° |
| 2026-05-07 22:22 | 44.26130 | -88.52940 | 896 ft | 13 kts | 0° |
| 2026-05-07 22:22 | 44.26197 | -88.52876 | 900 ft | 12 kts | 81° |
| 2026-05-07 22:22 | 44.26164 | -88.52763 | 903 ft | 13 kts | 115° |
| 2026-05-07 22:22 | 44.26119 | -88.52635 | 905 ft | 16 kts | 115° |
| 2026-05-07 22:23 | 44.26066 | -88.52477 | 902 ft | 20 kts | 115° |
| 2026-05-07 22:23 | 44.25998 | -88.52287 | 904 ft | 23 kts | 116° |
| 2026-05-07 22:23 | 44.25931 | -88.52096 | 902 ft | 20 kts | 115° |
| 2026-05-07 22:23 | 44.25872 | -88.51924 | 902 ft | 19 kts | 115° |
| 2026-05-07 22:24 | 44.25833 | -88.51798 | 897 ft | 10 kts | 97° |
| 2026-05-07 22:24 | 44.25852 | -88.51688 | 893 ft | 15 kts | 73° |
| 2026-05-07 22:24 | 44.25875 | -88.51580 | 888 ft | 3 kts | 74° |
| 2026-05-07 22:24 | 44.25880 | -88.51556 | 888 ft | 2 kts | 74° |
| 2026-05-07 22:25 | 44.25887 | -88.51522 | 888 ft | 5 kts | 75° |
| 2026-05-07 22:25 | 44.25897 | -88.51469 | 888 ft | 6 kts | 75° |
| 2026-05-07 22:25 | 44.25907 | -88.51412 | 888 ft | 6 kts | 82° |
| 2026-05-07 22:25 | 44.25909 | -88.51349 | 887 ft | 7 kts | 88° |
| 2026-05-07 22:26 | 44.25919 | -88.51320 | 887 ft | 2 kts | 29° |
| 2026-05-07 22:26 | 44.25932 | -88.51317 | 887 ft | 2 kts | 8° |
| 2026-05-07 22:26 | 44.25950 | -88.51315 | 887 ft | 3 kts | 1° |
| 2026-05-07 22:26 | 44.25964 | -88.51315 | 887 ft | 1 kts | 1° |
| 2026-05-07 22:27 | 44.25966 | -88.51315 | 887 ft | 0 kts | 1° |